Green Ridge, Missouri
Current Conditions -  °F | °C
As of 3:58 AM on Tuesday 21 Oct 2014 (Local Time) from KSZL Reporting Station
Clear Clear  
Wind Chill: 45°   Ceiling: Unl
Heat Index: 45°   Visibility: 10mi
Dew Point: 41°   Wind: 1mph
Humidity: 88%   Direction: 240°WSW
Pressure: 30.06"   Gusts: NA
Location:  38.62°N, 93.41°W
Report Text: KSZL 210858Z 24001KT 10SM CLR 07/05 A3006 RMK AO2A SLP180 T00700051 58002 $
Loading
Personal Weather Stations






























Interactive Weather Map
Tropical Storm Tracking
New forecast layout! Learn more

10-Day Weather Forecast

Advertisements
Track Severe Weather on mobile